NOZ1972 VTBD-VRMM
Flight info
| Callsign | NOZ1972 |
|---|---|
| Flight time | N/A |
| Altitude | 34000 |
| Route | PASTO3C PASTO L301 DWI P762 KAT G465 DOPDO DOPDO2A |
| Aircraft | B738/M-SDE2E3FGHIRWXY/LB1 |
Departure
| Time | 2026-05-05 17:47 |
|---|---|
| Airport | Don Mueang International Airport (VTBD) |
Arrival
| Time | N/A |
|---|---|
| Airport | Velana International Airport (VRMM) |
| Time | Latitude | Longitude | Altitude | Speed | Heading |
|---|---|---|---|---|---|
| 2026-05-05 17:30 | 13.92237 | 100.60667 | 12 ft | 0 kts | 120° |
| 2026-05-05 17:40 | 13.92238 | 100.60667 | 12 ft | 2 kts | 120° |
| 2026-05-05 17:40 | 13.92248 | 100.60644 | 14 ft | 4 kts | 102° |
| 2026-05-05 17:41 | 13.92251 | 100.60617 | 12 ft | 4 kts | 83° |
| 2026-05-05 17:41 | 13.92248 | 100.60602 | 13 ft | 1 kts | 78° |
| 2026-05-05 17:41 | 13.92248 | 100.60600 | 13 ft | 0 kts | 78° |
| 2026-05-05 17:43 | 13.92254 | 100.60610 | 13 ft | 3 kts | 47° |
| 2026-05-05 17:43 | 13.92293 | 100.60616 | 12 ft | 9 kts | 12° |
| 2026-05-05 17:44 | 13.92356 | 100.60648 | 12 ft | 12 kts | 28° |
| 2026-05-05 17:44 | 13.92437 | 100.60693 | 12 ft | 14 kts | 29° |
| 2026-05-05 17:44 | 13.92524 | 100.60743 | 12 ft | 16 kts | 28° |
| 2026-05-05 17:44 | 13.92623 | 100.60800 | 12 ft | 16 kts | 29° |
| 2026-05-05 17:45 | 13.92718 | 100.60856 | 12 ft | 15 kts | 32° |
| 2026-05-05 17:45 | 13.92725 | 100.60951 | 13 ft | 15 kts | 121° |
| 2026-05-05 17:45 | 13.92676 | 100.61040 | 12 ft | 14 kts | 113° |
| 2026-05-05 17:45 | 13.92631 | 100.61128 | 13 ft | 14 kts | 118° |
| 2026-05-05 17:46 | 13.92575 | 100.61198 | 10 ft | 13 kts | 174° |
| 2026-05-05 17:46 | 13.92537 | 100.61184 | 10 ft | 0 kts | 209° |
| 2026-05-05 17:46 | 13.92406 | 100.61112 | 11 ft | 58 kts | 208° |
| 2026-05-05 17:47 | 13.91822 | 100.60785 | 11 ft | 131 kts | 208° |
| 2026-05-05 17:47 | 13.90882 | 100.60256 | 216 ft | 169 kts | 210° |
| 2026-05-05 17:47 | 13.89899 | 100.59685 | 1139 ft | 161 kts | 207° |
| 2026-05-05 17:47 | 13.88868 | 100.59148 | 1838 ft | 172 kts | 208° |
| 2026-05-05 17:48 | 13.87991 | 100.58266 | 2420 ft | 192 kts | 246° |
| 2026-05-05 17:48 | 13.87960 | 100.56815 | 2631 ft | 221 kts | 291° |
| 2026-05-05 17:48 | 13.88799 | 100.55404 | 2830 ft | 241 kts | 302° |
| 2026-05-05 17:48 | 13.89669 | 100.53876 | 3140 ft | 257 kts | 297° |
| 2026-05-05 17:49 | 13.90492 | 100.52160 | 3483 ft | 273 kts | 294° |
| 2026-05-05 17:49 | 13.91253 | 100.50364 | 4251 ft | 274 kts | 292° |
| 2026-05-05 17:49 | 13.91961 | 100.48536 | 4970 ft | 276 kts | 291° |
| 2026-05-05 17:49 | 13.92635 | 100.46673 | 5662 ft | 279 kts | 289° |
| 2026-05-05 17:50 | 13.93293 | 100.44776 | 6357 ft | 282 kts | 289° |
| 2026-05-05 17:50 | 13.93939 | 100.42862 | 6998 ft | 285 kts | 289° |
| 2026-05-05 17:50 | 13.94583 | 100.40920 | 7638 ft | 288 kts | 288° |
| 2026-05-05 17:50 | 13.95232 | 100.38948 | 7958 ft | 291 kts | 288° |
| 2026-05-05 17:51 | 13.95875 | 100.36981 | 7968 ft | 289 kts | 288° |
| 2026-05-05 17:51 | 13.96519 | 100.35011 | 8001 ft | 292 kts | 288° |
| 2026-05-05 17:51 | 13.97154 | 100.33023 | 8004 ft | 293 kts | 284° |
| 2026-05-05 17:51 | 13.97404 | 100.30965 | 8193 ft | 295 kts | 270° |
| 2026-05-05 17:52 | 13.97407 | 100.28820 | 8873 ft | 296 kts | 270° |
| 2026-05-05 17:52 | 13.97450 | 100.26721 | 9549 ft | 298 kts | 271° |
| 2026-05-05 17:52 | 13.97512 | 100.24545 | 10142 ft | 302 kts | 271° |
| 2026-05-05 17:52 | 13.97583 | 100.22357 | 10369 ft | 320 kts | 272° |
| 2026-05-05 17:53 | 13.97637 | 100.20778 | 10473 ft | 333 kts | 272° |
| 2026-05-05 17:53 | 13.97754 | 100.17506 | 10678 ft | 356 kts | 272° |
| 2026-05-05 17:53 | 13.97847 | 100.14922 | 11035 ft | 365 kts | 272° |
| 2026-05-05 17:53 | 13.97943 | 100.12297 | 11555 ft | 368 kts | 272° |
| 2026-05-05 17:54 | 13.98040 | 100.09655 | 12113 ft | 370 kts | 272° |
| 2026-05-05 17:54 | 13.98136 | 100.07001 | 12636 ft | 373 kts | 272° |
| 2026-05-05 17:54 | 13.98201 | 100.05213 | 12978 ft | 376 kts | 272° |
| 2026-05-05 17:54 | 13.98297 | 100.02519 | 13493 ft | 379 kts | 272° |
| 2026-05-05 17:55 | 13.98425 | 99.98902 | 14117 ft | 383 kts | 272° |
| 2026-05-05 17:55 | 13.98489 | 99.97083 | 14435 ft | 384 kts | 272° |
| 2026-05-05 17:55 | 13.98586 | 99.94331 | 14910 ft | 386 kts | 272° |
| 2026-05-05 17:55 | 13.98683 | 99.91559 | 15368 ft | 388 kts | 272° |
| 2026-05-05 17:56 | 13.98781 | 99.88773 | 15819 ft | 391 kts | 272° |
| 2026-05-05 17:56 | 13.98879 | 99.85966 | 16256 ft | 394 kts | 272° |
| 2026-05-05 17:56 | 13.98977 | 99.83139 | 16697 ft | 396 kts | 272° |
| 2026-05-05 17:56 | 13.99076 | 99.80293 | 17147 ft | 398 kts | 272° |
| 2026-05-05 17:57 | 13.99174 | 99.77444 | 17585 ft | 400 kts | 272° |
| 2026-05-05 17:57 | 13.99274 | 99.74559 | 17996 ft | 403 kts | 272° |
| 2026-05-05 17:57 | 13.99374 | 99.71660 | 18368 ft | 406 kts | 272° |
| 2026-05-05 17:57 | 13.99472 | 99.68784 | 18724 ft | 408 kts | 272° |
| 2026-05-05 17:58 | 13.99572 | 99.65858 | 19092 ft | 410 kts | 272° |
| 2026-05-05 17:58 | 13.99672 | 99.62925 | 19446 ft | 412 kts | 272° |
| 2026-05-05 17:58 | 13.99772 | 99.59966 | 19794 ft | 414 kts | 272° |
| 2026-05-05 17:58 | 13.99872 | 99.56998 | 20132 ft | 416 kts | 272° |
| 2026-05-05 17:59 | 13.99973 | 99.54002 | 20476 ft | 418 kts | 272° |
| 2026-05-05 17:59 | 14.00074 | 99.50996 | 20822 ft | 420 kts | 272° |
| 2026-05-05 17:59 | 14.00227 | 99.47987 | 21152 ft | 422 kts | 275° |
| 2026-05-05 17:59 | 14.00500 | 99.44981 | 21471 ft | 424 kts | 276° |
| 2026-05-05 18:00 | 14.00821 | 99.41942 | 21771 ft | 427 kts | 277° |
| 2026-05-05 18:00 | 14.01150 | 99.38894 | 22088 ft | 429 kts | 276° |
| 2026-05-05 18:00 | 14.01471 | 99.35839 | 22431 ft | 430 kts | 276° |
| 2026-05-05 18:00 | 14.01783 | 99.32774 | 22762 ft | 431 kts | 276° |
| 2026-05-05 18:01 | 14.02089 | 99.29687 | 23065 ft | 433 kts | 276° |
| 2026-05-05 18:01 | 14.02388 | 99.26600 | 23342 ft | 435 kts | 276° |
| 2026-05-05 18:01 | 14.02685 | 99.23522 | 23607 ft | 437 kts | 276° |
| 2026-05-05 18:01 | 14.02984 | 99.20404 | 23854 ft | 438 kts | 276° |
| 2026-05-05 18:02 | 14.03283 | 99.17272 | 24108 ft | 440 kts | 276° |
| 2026-05-05 18:02 | 14.03584 | 99.14132 | 24337 ft | 441 kts | 276° |
| 2026-05-05 18:02 | 14.03885 | 99.10983 | 24559 ft | 443 kts | 276° |
| 2026-05-05 18:02 | 14.04188 | 99.07820 | 24807 ft | 444 kts | 276° |
| 2026-05-05 18:03 | 14.04491 | 99.04649 | 25082 ft | 444 kts | 276° |
| 2026-05-05 18:03 | 14.04793 | 99.01476 | 25320 ft | 445 kts | 276° |
| 2026-05-05 18:03 | 14.05096 | 98.98294 | 25518 ft | 448 kts | 276° |
| 2026-05-05 18:03 | 14.05381 | 98.95099 | 25721 ft | 449 kts | 275° |
| 2026-05-05 18:04 | 14.05608 | 98.91874 | 25948 ft | 451 kts | 274° |
| 2026-05-05 18:04 | 14.05808 | 98.88642 | 26168 ft | 452 kts | 274° |
| 2026-05-05 18:04 | 14.06001 | 98.85403 | 26378 ft | 454 kts | 274° |
| 2026-05-05 18:04 | 14.06195 | 98.82199 | 26591 ft | 455 kts | 274° |
| 2026-05-05 18:05 | 14.06400 | 98.78898 | 26787 ft | 456 kts | 274° |
| 2026-05-05 18:05 | 14.06607 | 98.75628 | 26992 ft | 458 kts | 274° |
| 2026-05-05 18:05 | 14.06817 | 98.72350 | 27189 ft | 459 kts | 274° |
| 2026-05-05 18:05 | 14.07025 | 98.69117 | 27401 ft | 460 kts | 274° |
| 2026-05-05 18:06 | 14.07238 | 98.65824 | 27643 ft | 460 kts | 274° |
| 2026-05-05 18:06 | 14.07381 | 98.63608 | 27775 ft | 461 kts | 274° |
| 2026-05-05 18:06 | 14.07662 | 98.59231 | 27998 ft | 463 kts | 274° |
| 2026-05-05 18:06 | 14.07875 | 98.55910 | 28168 ft | 464 kts | 274° |
| 2026-05-05 18:07 | 14.08087 | 98.52592 | 28346 ft | 466 kts | 274° |
| 2026-05-05 18:07 | 14.08300 | 98.49258 | 28518 ft | 467 kts | 274° |
| 2026-05-05 18:07 | 14.08512 | 98.45920 | 28688 ft | 468 kts | 274° |
| 2026-05-05 18:07 | 14.08724 | 98.42570 | 28855 ft | 469 kts | 274° |
| 2026-05-05 18:08 | 14.08937 | 98.39209 | 29025 ft | 470 kts | 274° |
| 2026-05-05 18:08 | 14.09148 | 98.35861 | 29251 ft | 469 kts | 274° |
| 2026-05-05 18:08 | 14.09360 | 98.32506 | 29514 ft | 468 kts | 274° |
| 2026-05-05 18:08 | 14.09570 | 98.29164 | 29769 ft | 467 kts | 274° |
| 2026-05-05 18:09 | 14.09780 | 98.25812 | 29982 ft | 467 kts | 274° |
| 2026-05-05 18:09 | 14.09772 | 98.22471 | 30159 ft | 468 kts | 264° |
| 2026-05-05 18:09 | 14.09202 | 98.19172 | 30362 ft | 468 kts | 256° |
| 2026-05-05 18:09 | 14.08182 | 98.16047 | 30588 ft | 467 kts | 246° |
| 2026-05-05 18:10 | 14.06795 | 98.12977 | 30796 ft | 467 kts | 245° |
| 2026-05-05 18:10 | 14.05427 | 98.09983 | 30969 ft | 467 kts | 245° |
| 2026-05-05 18:10 | 14.04049 | 98.06949 | 31163 ft | 467 kts | 245° |
| 2026-05-05 18:10 | 14.02685 | 98.03923 | 31392 ft | 466 kts | 246° |
| 2026-05-05 18:11 | 14.01325 | 98.00884 | 31631 ft | 465 kts | 246° |
| 2026-05-05 18:11 | 13.99983 | 97.97870 | 31842 ft | 464 kts | 246° |
| 2026-05-05 18:11 | 13.98642 | 97.94850 | 32027 ft | 464 kts | 246° |
| 2026-05-05 18:11 | 13.97299 | 97.91820 | 32192 ft | 465 kts | 246° |
| 2026-05-05 18:12 | 13.95959 | 97.88798 | 32409 ft | 464 kts | 246° |
| 2026-05-05 18:12 | 13.94621 | 97.85783 | 32656 ft | 462 kts | 246° |
| 2026-05-05 18:12 | 13.93287 | 97.82777 | 32871 ft | 461 kts | 246° |
| 2026-05-05 18:12 | 13.91970 | 97.79812 | 33068 ft | 461 kts | 246° |
| 2026-05-05 18:13 | 13.90633 | 97.76803 | 33255 ft | 461 kts | 246° |
| 2026-05-05 18:13 | 13.89302 | 97.73808 | 33464 ft | 460 kts | 246° |
| 2026-05-05 18:13 | 13.87970 | 97.70813 | 33682 ft | 459 kts | 246° |
| 2026-05-05 18:13 | 13.86640 | 97.67825 | 33868 ft | 459 kts | 246° |
| 2026-05-05 18:14 | 13.85308 | 97.64833 | 33855 ft | 461 kts | 246° |
| 2026-05-05 18:14 | 13.82636 | 97.58833 | 33867 ft | 460 kts | 246° |
| 2026-05-05 18:15 | 13.79974 | 97.52864 | 33869 ft | 458 kts | 246° |
| 2026-05-05 18:15 | 13.77322 | 97.46919 | 33875 ft | 456 kts | 246° |
| 2026-05-05 18:16 | 13.74695 | 97.41033 | 33872 ft | 455 kts | 246° |
| 2026-05-05 18:16 | 13.72051 | 97.35115 | 33871 ft | 456 kts | 246° |
| 2026-05-05 18:17 | 13.69397 | 97.29179 | 33877 ft | 457 kts | 246° |
| 2026-05-05 18:17 | 13.66734 | 97.23228 | 33877 ft | 459 kts | 246° |
| 2026-05-05 18:18 | 13.64056 | 97.17249 | 33876 ft | 461 kts | 246° |
| 2026-05-05 18:18 | 13.61365 | 97.11242 | 33871 ft | 463 kts | 246° |
| 2026-05-05 18:19 | 13.58666 | 97.05226 | 33869 ft | 464 kts | 246° |
| 2026-05-05 18:19 | 13.55954 | 96.99182 | 33869 ft | 465 kts | 246° |
| 2026-05-05 18:20 | 13.53254 | 96.93172 | 33865 ft | 465 kts | 246° |
| 2026-05-05 18:20 | 13.50541 | 96.87137 | 33864 ft | 465 kts | 246° |
| 2026-05-05 18:21 | 13.47829 | 96.81109 | 33862 ft | 464 kts | 246° |
| 2026-05-05 18:21 | 13.45121 | 96.75094 | 33867 ft | 463 kts | 246° |
| 2026-05-05 18:22 | 13.42416 | 96.69088 | 33860 ft | 463 kts | 246° |
| 2026-05-05 18:22 | 13.39718 | 96.63105 | 33862 ft | 462 kts | 246° |
| 2026-05-05 18:23 | 13.37015 | 96.57115 | 33864 ft | 462 kts | 246° |
| 2026-05-05 18:23 | 13.34313 | 96.51130 | 33863 ft | 461 kts | 246° |
| 2026-05-05 18:24 | 13.31611 | 96.45151 | 33861 ft | 462 kts | 246° |
| 2026-05-05 18:24 | 13.28908 | 96.39172 | 33865 ft | 462 kts | 246° |
| 2026-05-05 18:25 | 13.26217 | 96.33227 | 33863 ft | 462 kts | 246° |
| 2026-05-05 18:25 | 13.23507 | 96.27242 | 33864 ft | 463 kts | 246° |
| 2026-05-05 18:26 | 13.20791 | 96.21249 | 33863 ft | 463 kts | 246° |
| 2026-05-05 18:26 | 13.18070 | 96.15249 | 33863 ft | 464 kts | 246° |
| 2026-05-05 18:27 | 13.15345 | 96.09246 | 33863 ft | 464 kts | 246° |
| 2026-05-05 18:27 | 13.12617 | 96.03241 | 33862 ft | 465 kts | 246° |
| 2026-05-05 18:28 | 13.08514 | 95.94215 | 33862 ft | 465 kts | 246° |
| 2026-05-05 18:28 | 13.05781 | 95.88208 | 33864 ft | 465 kts | 246° |
| 2026-05-05 18:29 | 13.03044 | 95.82198 | 33862 ft | 465 kts | 246° |
| 2026-05-05 18:29 | 13.00307 | 95.76192 | 33862 ft | 465 kts | 246° |
| 2026-05-05 18:30 | 12.97570 | 95.70189 | 33863 ft | 464 kts | 246° |
| 2026-05-05 18:30 | 12.94833 | 95.64192 | 33862 ft | 464 kts | 246° |
| 2026-05-05 18:31 | 12.92099 | 95.58205 | 33861 ft | 464 kts | 246° |
| 2026-05-05 18:31 | 12.89361 | 95.52210 | 33856 ft | 464 kts | 246° |
| 2026-05-05 18:32 | 12.86646 | 95.46266 | 33855 ft | 463 kts | 246° |
| 2026-05-05 18:32 | 12.83954 | 95.40267 | 33854 ft | 463 kts | 246° |
| 2026-05-05 18:33 | 12.81280 | 95.34273 | 33855 ft | 463 kts | 246° |
| 2026-05-05 18:33 | 12.78598 | 95.28276 | 33856 ft | 462 kts | 246° |
| 2026-05-05 18:34 | 12.75927 | 95.22316 | 33854 ft | 462 kts | 246° |
| 2026-05-05 18:34 | 12.73241 | 95.16329 | 33856 ft | 462 kts | 246° |
| 2026-05-05 18:35 | 12.70553 | 95.10344 | 33855 ft | 462 kts | 246° |
| 2026-05-05 18:35 | 12.67866 | 95.04363 | 33854 ft | 462 kts | 246° |
| 2026-05-05 18:36 | 12.65177 | 94.98384 | 33856 ft | 462 kts | 246° |
| 2026-05-05 18:36 | 12.62483 | 94.92396 | 33850 ft | 462 kts | 246° |
| 2026-05-05 18:37 | 12.59790 | 94.86415 | 33857 ft | 462 kts | 246° |
| 2026-05-05 18:37 | 12.57090 | 94.80422 | 33854 ft | 463 kts | 246° |
| 2026-05-05 18:38 | 12.54390 | 94.74435 | 33855 ft | 463 kts | 246° |
| 2026-05-05 18:38 | 12.51692 | 94.68455 | 33856 ft | 463 kts | 246° |
| 2026-05-05 18:39 | 12.48987 | 94.62465 | 33855 ft | 463 kts | 246° |
| 2026-05-05 18:39 | 12.46281 | 94.56474 | 33856 ft | 463 kts | 246° |
| 2026-05-05 18:40 | 12.43596 | 94.50535 | 33854 ft | 463 kts | 246° |
| 2026-05-05 18:40 | 12.40891 | 94.44555 | 33850 ft | 463 kts | 246° |
| 2026-05-05 18:41 | 12.38190 | 94.38582 | 33850 ft | 462 kts | 246° |
| 2026-05-05 18:41 | 12.35507 | 94.32618 | 33857 ft | 461 kts | 246° |
| 2026-05-05 18:42 | 12.32833 | 94.26678 | 33847 ft | 460 kts | 246° |
| 2026-05-05 18:42 | 12.30160 | 94.20746 | 33850 ft | 458 kts | 246° |
| 2026-05-05 18:43 | 12.27942 | 94.15827 | 33838 ft | 458 kts | 246° |
| 2026-05-05 18:43 | 12.25272 | 94.09908 | 33856 ft | 458 kts | 246° |
| 2026-05-05 18:44 | 12.22601 | 94.03992 | 33855 ft | 459 kts | 246° |
| 2026-05-05 18:44 | 12.19942 | 93.98046 | 33856 ft | 460 kts | 246° |
| 2026-05-05 18:45 | 12.17298 | 93.92073 | 33854 ft | 461 kts | 247° |
| 2026-05-05 18:45 | 12.14664 | 93.86123 | 33850 ft | 463 kts | 246° |
| 2026-05-05 18:46 | 12.12000 | 93.80116 | 33851 ft | 464 kts | 246° |
| 2026-05-05 18:46 | 12.09332 | 93.74112 | 33849 ft | 465 kts | 246° |
| 2026-05-05 18:47 | 12.06658 | 93.68099 | 33850 ft | 465 kts | 246° |
| 2026-05-05 18:47 | 12.03972 | 93.62063 | 33850 ft | 466 kts | 246° |
| 2026-05-05 18:48 | 12.01307 | 93.56077 | 33840 ft | 466 kts | 245° |
| 2026-05-05 18:48 | 11.98618 | 93.50043 | 33839 ft | 466 kts | 245° |
| 2026-05-05 18:49 | 11.95929 | 93.44013 | 33850 ft | 466 kts | 245° |
| 2026-05-05 18:49 | 11.93241 | 93.37986 | 33841 ft | 466 kts | 245° |
| 2026-05-05 18:50 | 11.90553 | 93.31967 | 33846 ft | 466 kts | 245° |
| 2026-05-05 18:50 | 11.87854 | 93.25925 | 33846 ft | 466 kts | 245° |
| 2026-05-05 18:51 | 11.85162 | 93.19903 | 33834 ft | 466 kts | 245° |
| 2026-05-05 18:51 | 11.82486 | 93.13921 | 33845 ft | 466 kts | 245° |
| 2026-05-05 18:52 | 11.79792 | 93.07902 | 33835 ft | 466 kts | 245° |
| 2026-05-05 18:52 | 11.77094 | 93.01880 | 33840 ft | 466 kts | 245° |
| 2026-05-05 18:53 | 11.74401 | 92.95870 | 33845 ft | 466 kts | 245° |
| 2026-05-05 18:53 | 11.71697 | 92.89841 | 33860 ft | 466 kts | 245° |
| 2026-05-05 18:54 | 11.68996 | 92.83822 | 33862 ft | 467 kts | 245° |
| 2026-05-05 18:54 | 11.66290 | 92.77797 | 33912 ft | 467 kts | 245° |
| 2026-05-05 18:55 | 11.63796 | 92.71680 | 33906 ft | 467 kts | 252° |
| 2026-05-05 18:55 | 11.61912 | 92.65377 | 33909 ft | 468 kts | 253° |
| 2026-05-05 18:56 | 11.60082 | 92.59115 | 33905 ft | 468 kts | 253° |
| 2026-05-05 18:56 | 11.58168 | 92.52769 | 33889 ft | 468 kts | 252° |
| 2026-05-05 18:57 | 11.56223 | 92.46435 | 33877 ft | 468 kts | 252° |
| 2026-05-05 18:57 | 11.54273 | 92.40108 | 33862 ft | 468 kts | 252° |